Terminal Aerodrome Forecast
Issued by NWS

Home | Current Version | Previous Version | Text Only | Print | Product List | Glossary On
Versions: 1 2 3 4 5 6 7 8 9 10 11 12 13 14 15 16 17 18
000
FTUS43 KAPX 300900 CCA
TAFTVC
TAF COR
KTVC 300938Z 3010/3106 17004KT P6SM FEW045 OVC110 WS020/20030KT
     FM301100 18004KT 5SM -SHRA VCTS SCT045CB BKN080 OVC110
      WS020/20030KT
     FM301500 20006KT P6SM BKN025
     FM302000 23008KT 5SM -TSRA BR OVC030CB
     FM302300 28005KT 6SM BR OVC008=

USA.gov is the U.S. government's official web portal to all federal, state and local government web resources and services.